Time;durP1;ratioP1;P1;durP2;ratioP2;P2;SDS_P1;SDS_P2;PMS_P1;PMS_P2;Temp;Humidity;BMP_temperature;BMP_pressure;BME280_temperature;BME280_humidity;BME280_pressure;Samples;Min_cycle;Max_cycle;Signal;HPM_P1;HPM_P2
2022/12/14 00:01:25;;;;;;;14.48;5.22;;;-0.80;99.90;;;;;;5018744;28;20048;-70
2022/12/14 00:03:51;;;;;;;15.13;5.50;;;-0.80;99.90;;;;;;5015954;28;20100;-69
2022/12/14 00:06:18;;;;;;;10.38;4.10;;;-0.80;99.90;;;;;;5011036;28;20116;-70
2022/12/14 00:08:46;;;;;;;17.65;5.47;;;-0.70;99.90;;;;;;5005150;28;20052;-68
2022/12/14 00:11:13;;;;;;;11.10;4.75;;;-0.60;99.90;;;;;;5016668;28;20034;-70
2022/12/14 00:13:40;;;;;;;14.45;4.85;;;-0.70;99.90;;;;;;5016410;28;20093;-71
2022/12/14 00:16:11;;;;;;;13.93;4.63;;;-0.60;99.90;;;;;;5013479;28;20030;-70
2022/12/14 00:18:38;;;;;;;12.45;5.28;;;-0.70;99.90;;;;;;5015934;28;20558;-71
2022/12/14 00:21:05;;;;;;;15.05;5.10;;;-0.70;99.90;;;;;;5019686;28;20518;-71
2022/12/14 00:23:31;;;;;;;10.00;4.40;;;-0.70;99.90;;;;;;5022446;28;20072;-69
2022/12/14 00:25:57;;;;;;;12.25;5.07;;;-0.70;99.90;;;;;;5020736;28;20505;-70
2022/12/14 00:28:22;;;;;;;10.50;4.07;;;-0.50;99.90;;;;;;5018766;28;20057;-72
2022/12/14 00:30:54;;;;;;;10.63;4.28;;;-0.50;99.90;;;;;;5022137;28;20485;-71
2022/12/14 00:33:20;;;;;;;9.73;4.07;;;-0.60;99.90;;;;;;5000225;28;20721;-70
2022/12/14 00:35:45;;;;;;;11.38;3.70;;;-0.60;99.90;;;;;;5016904;28;20061;-67
2022/12/14 00:38:11;;;;;;;9.18;4.32;;;-0.60;99.90;;;;;;5019462;28;20410;-66
2022/12/14 00:40:37;;;;;;;11.57;3.83;;;-0.60;99.90;;;;;;5016710;28;20100;-72
2022/12/14 00:43:02;;;;;;;10.88;3.97;;;-0.60;99.90;;;;;;5024860;28;20052;-70
2022/12/14 00:45:28;;;;;;;12.38;4.43;;;-0.60;99.90;;;;;;5021825;28;20030;-68
2022/12/14 00:47:55;;;;;;;11.65;4.13;;;-0.60;99.90;;;;;;5019767;28;20030;-70
2022/12/14 00:50:21;;;;;;;11.15;5.07;;;-0.60;99.90;;;;;;5018542;28;20081;-68
2022/12/14 00:52:46;;;;;;;13.02;4.25;;;-0.60;99.90;;;;;;5038399;28;20037;-67
2022/12/14 00:55:12;;;;;;;12.02;4.35;;;-0.60;99.90;;;;;;5036079;28;20077;-71
2022/12/14 00:57:38;;;;;;;9.77;3.88;;;-0.50;99.90;;;;;;5031377;28;20034;-70
2022/12/14 01:00:04;;;;;;;15.43;4.55;;;-0.50;99.90;;;;;;5028665;28;20040;-70
2022/12/14 01:02:30;;;;;;;12.30;3.95;;;-0.50;99.90;;;;;;5034674;28;20037;-69
2022/12/14 01:04:56;;;;;;;12.35;4.95;;;-0.60;99.90;;;;;;5030039;28;20041;-70
2022/12/14 01:07:21;;;;;;;13.00;4.85;;;-0.60;99.90;;;;;;5003937;28;20160;-70
2022/12/14 01:09:47;;;;;;;14.00;5.43;;;-0.60;99.90;;;;;;5022820;28;20033;-67
2022/12/14 01:12:13;;;;;;;13.23;4.05;;;-0.60;99.90;;;;;;5019446;28;20044;-71
2022/12/14 01:14:39;;;;;;;11.52;4.85;;;-0.60;99.90;;;;;;5015999;28;20039;-70
2022/12/14 01:17:05;;;;;;;11.25;4.90;;;-0.70;99.90;;;;;;5023263;28;20434;-71
2022/12/14 01:19:31;;;;;;;15.48;4.57;;;-0.70;99.90;;;;;;5011917;28;20038;-70
2022/12/14 01:21:57;;;;;;;9.15;3.75;;;-0.70;99.90;;;;;;5019980;28;20111;-70
2022/12/14 01:24:23;;;;;;;8.05;3.67;;;-0.70;99.90;;;;;;4999399;28;20037;-69
2022/12/14 01:26:49;;;;;;;13.77;4.60;;;-0.80;99.90;;;;;;5019796;28;20037;-69
2022/12/14 01:29:15;;;;;;;9.88;3.75;;;-0.80;99.90;;;;;;5017095;28;20042;-67
2022/12/14 01:31:40;;;;;;;11.02;4.18;;;-0.80;99.90;;;;;;5019611;28;20042;-68
2022/12/14 01:34:07;;;;;;;10.63;4.07;;;-0.90;99.90;;;;;;5016579;28;20118;-69
2022/12/14 01:36:34;;;;;;;8.38;3.50;;;-0.90;99.90;;;;;;5019439;28;20572;-69
2022/12/14 01:39:08;;;;;;;14.73;4.95;;;-0.90;99.90;;;;;;5017406;28;20176;-71
2022/12/14 01:41:52;;;;;;;12.23;4.68;;;-0.90;99.90;;;;;;5019839;28;20034;-68
2022/12/14 01:44:17;;;;;;;13.55;4.38;;;-0.90;99.90;;;;;;5013622;28;20038;-68
2022/12/14 01:46:59;;;;;;;11.10;4.75;;;-0.90;99.90;;;;;;5021278;28;20047;-71
2022/12/14 01:49:38;;;;;;;12.50;4.05;;;-0.90;99.90;;;;;;4997660;28;20034;-70
2022/12/14 01:52:30;;;;;;;9.30;4.32;;;-0.90;99.90;;;;;;5019468;28;20573;-69
2022/12/14 01:54:59;;;;;;;;;;;-0.90;99.90;;;;;;5017093;28;20042;-71
2022/12/14 01:57:36;;;;;;;12.65;5.60;;;-1.00;99.90;;;;;;5020551;28;20095;-70
2022/12/14 02:00:02;;;;;;;11.93;3.88;;;-1.00;99.90;;;;;;5018743;28;20049;-70
2022/12/14 02:02:28;;;;;;;10.23;4.28;;;-0.90;99.90;;;;;;5018861;28;20093;-70
2022/12/14 02:04:59;;;;;;;11.95;5.35;;;-1.10;99.90;;;;;;5018338;28;20175;-70
2022/12/14 02:07:27;;;;;;;12.45;5.35;;;-1.10;99.90;;;;;;5019423;28;20030;-70
2022/12/14 02:09:56;;;;;;;14.52;6.07;;;-1.00;99.90;;;;;;5021975;28;20398;-70
2022/12/14 02:12:29;;;;;;;15.20;5.47;;;-1.10;99.90;;;;;;5021871;28;20032;-69
2022/12/14 02:14:55;;;;;;;14.40;4.65;;;-1.10;99.90;;;;;;5001611;28;20154;-70
2022/12/14 02:17:21;;;;;;;14.57;5.15;;;-1.20;99.90;;;;;;5017881;28;20034;-69
2022/12/14 02:19:48;;;;;;;13.98;4.55;;;-1.20;99.90;;;;;;5020581;28;20026;-69
2022/12/14 02:23:01;;;;;;;12.57;4.60;;;-1.20;99.90;;;;;;5020587;28;20176;-70
2022/12/14 02:25:48;;;;;;;16.27;6.20;;;-1.20;99.90;;;;;;4995474;28;20060;-69
2022/12/14 02:28:37;;;;;;;14.38;4.88;;;-1.20;99.90;;;;;;5020311;28;20037;-69
2022/12/14 02:31:23;;;;;;;12.10;5.22;;;-1.20;99.90;;;;;;5009672;28;20037;-69
2022/12/14 02:34:05;;;;;;;11.25;4.65;;;-1.20;99.90;;;;;;5014064;28;20042;-67
2022/12/14 02:36:51;;;;;;;13.90;5.18;;;-1.20;99.90;;;;;;5000317;28;20049;-67
2022/12/14 02:39:32;;;;;;;11.07;4.32;;;-1.20;99.90;;;;;;5012797;28;20049;-71
2022/12/14 02:42:04;;;;;;;;;;;-1.30;99.90;;;;;;5015758;28;20570;-70
2022/12/14 02:44:51;;;;;;;9.77;4.38;;;-1.30;99.90;;;;;;5019317;28;19920;-70
2022/12/14 02:47:32;;;;;;;11.48;4.07;;;-1.30;99.90;;;;;;5013933;28;20671;-70
2022/12/14 02:50:13;;;;;;;10.55;4.38;;;-1.30;99.90;;;;;;5012374;28;20128;-70
2022/12/14 02:52:47;;;;;;;12.77;4.35;;;-1.30;99.90;;;;;;5021137;28;20033;-71
2022/12/14 02:55:29;;;;;;;9.68;3.83;;;-1.30;99.90;;;;;;5013112;28;20056;-69
2022/12/14 02:58:02;;;;;;;11.18;3.83;;;-1.30;99.90;;;;;;5016130;28;20030;-70
2022/12/14 03:00:35;;;;;;;10.93;4.38;;;-1.30;99.90;;;;;;5019260;28;20040;-70
2022/12/14 03:03:03;;;;;;;13.27;3.83;;;-1.30;99.90;;;;;;5019762;28;20045;-69
2022/12/14 03:05:29;;;;;;;12.60;4.10;;;-1.30;99.90;;;;;;5002163;28;20375;-70
2022/12/14 03:08:09;;;;;;;9.82;4.15;;;-1.30;99.90;;;;;;5021308;28;20092;-71
2022/12/14 03:10:56;;;;;;;10.48;2.78;;;-1.30;99.90;;;;;;5026049;28;20096;-69
2022/12/14 03:13:49;;;;;;;13.63;4.57;;;-1.30;99.90;;;;;;5027483;28;20112;-69
2022/12/14 03:16:24;;;;;;;10.85;4.50;;;-1.40;99.90;;;;;;5009090;28;20037;-71
2022/12/14 03:19:16;;;;;;;10.02;4.18;;;-1.40;99.90;;;;;;5030140;28;20510;-70
2022/12/14 03:21:53;;;;;;;9.75;4.57;;;-1.40;99.90;;;;;;5018578;28;20052;-71
2022/12/14 03:24:24;;;;;;;11.18;4.38;;;-1.50;99.90;;;;;;5015157;28;20038;-70
2022/12/14 03:27:02;;;;;;;9.18;3.65;;;-1.50;99.90;;;;;;5019769;28;20056;-68
2022/12/14 03:29:32;;;;;;;10.68;4.05;;;-1.50;99.90;;;;;;5000498;28;20041;-70
2022/12/14 03:32:00;;;;;;;;;;;-1.50;99.90;;;;;;5017124;28;20029;-68
2022/12/14 03:34:31;;;;;;;10.52;3.83;;;-1.60;99.90;;;;;;5018144;28;19917;-70
2022/12/14 03:37:23;;;;;;;;;;;-1.50;99.90;;;;;;5018405;28;20052;-67
2022/12/14 03:39:49;;;;;;;9.80;3.53;;;-1.50;99.90;;;;;;4981146;28;19917;-70
2022/12/14 03:42:20;;;;;;;9.63;3.90;;;-1.50;99.90;;;;;;5015605;28;20560;-70
2022/12/14 03:45:13;;;;;;;11.30;4.30;;;-1.50;99.90;;;;;;4998396;28;20073;-69
2022/12/14 03:47:49;;;;;;;9.57;4.38;;;-1.60;99.90;;;;;;5015896;28;20026;-70
2022/12/14 03:50:19;;;;;;;11.68;5.07;;;-1.60;99.90;;;;;;5016281;28;20049;-69
2022/12/14 03:53:24;;;;;;;10.40;4.78;;;-1.60;99.90;;;;;;5022403;28;20038;-70
2022/12/14 03:55:58;;;;;;;8.45;3.72;;;-1.60;99.90;;;;;;4907108;29;20167;-68
2022/12/14 03:58:30;;;;;;;9.98;4.22;;;-1.70;99.90;;;;;;5003155;28;20033;-70
2022/12/14 04:01:24;;;;;;;11.40;3.80;;;-1.60;99.90;;;;;;5021210;28;20517;-70
2022/12/14 04:04:13;;;;;;;10.68;3.92;;;-1.60;99.90;;;;;;5017707;28;20157;-68
2022/12/14 04:06:54;;;;;;;8.23;3.47;;;-1.60;99.90;;;;;;5014660;28;20041;-70
2022/12/14 04:09:43;;;;;;;12.18;3.83;;;-1.50;99.90;;;;;;5018019;28;20101;-68
2022/12/14 04:21:21;;;;;;;10.65;4.78;;;-1.70;99.90;;;;;;5015423;28;20540;-70
2022/12/14 04:26:41;;;;;;;;;;;-1.90;99.90;;;;;;5019306;28;20137;-67
2022/12/14 04:32:07;;;;;;;12.38;4.95;;;-1.90;99.90;;;;;;5019033;28;20145;-69
2022/12/14 04:34:35;;;;;;;13.30;4.93;;;-1.90;99.90;;;;;;5018088;28;20383;-70
2022/12/14 04:37:07;;;;;;;14.18;4.78;;;-2.00;99.90;;;;;;5018065;28;20387;-71
2022/12/14 04:39:54;;;;;;;12.00;4.40;;;-2.00;99.90;;;;;;5021230;28;20409;-70
2022/12/14 04:42:26;;;;;;;12.70;5.10;;;-2.00;99.90;;;;;;5016839;28;20037;-70
2022/12/14 04:44:57;;;;;;;12.75;4.82;;;-2.10;99.90;;;;;;5016888;28;20049;-70
2022/12/14 04:47:29;;;;;;;9.98;4.22;;;-2.10;99.90;;;;;;5019757;28;20554;-68
2022/12/14 04:50:09;;;;;;;10.10;4.53;;;-2.10;99.90;;;;;;5017910;28;20034;-71
2022/12/14 04:52:46;;;;;;;12.85;5.05;;;-2.10;99.90;;;;;;5018079;28;20853;-69
2022/12/14 04:55:16;;;;;;;14.45;6.10;;;-2.20;99.90;;;;;;5010594;28;20045;-69
2022/12/14 04:57:46;;;;;;;;;;;-2.20;99.90;;;;;;5017473;28;20037;-68
2022/12/14 05:00:13;;;;;;;16.57;5.37;;;-2.20;99.90;;;;;;5016477;28;19913;-70
2022/12/14 05:02:50;;;;;;;14.52;5.32;;;-2.20;99.90;;;;;;5020379;28;20986;-67
2022/12/14 05:05:21;;;;;;;11.70;5.47;;;-2.10;99.90;;;;;;5003550;28;20041;-69
2022/12/14 05:08:01;;;;;;;12.77;4.85;;;-2.10;99.90;;;;;;5013043;28;20516;-69
2022/12/14 05:10:47;;;;;;;11.18;4.82;;;-2.10;99.90;;;;;;5011538;28;20042;-68
2022/12/14 05:13:27;;;;;;;14.77;5.68;;;-2.20;99.90;;;;;;5003037;28;20038;-70
2022/12/14 05:15:55;;;;;;;11.75;5.50;;;-2.20;99.90;;;;;;5005845;28;20408;-69
2022/12/14 05:18:22;;;;;;;13.00;4.55;;;-2.20;99.90;;;;;;5010994;28;20033;-71
2022/12/14 05:20:47;;;;;;;16.40;6.22;;;-2.30;99.90;;;;;;5003035;28;20045;-69
2022/12/14 05:23:14;;;;;;;10.80;4.40;;;-2.30;99.90;;;;;;5020792;28;20034;-69
2022/12/14 05:25:40;;;;;;;13.23;5.32;;;-2.30;99.90;;;;;;5013160;28;20030;-67
2022/12/14 05:28:05;;;;;;;13.40;5.30;;;-2.40;99.90;;;;;;5017828;28;20030;-70
2022/12/14 05:30:31;;;;;;;14.38;5.95;;;-2.40;99.90;;;;;;5021265;28;20079;-71
2022/12/14 05:32:57;;;;;;;11.57;4.68;;;-2.40;99.90;;;;;;5012947;28;20042;-71
2022/12/14 05:35:23;;;;;;;10.98;4.90;;;-2.40;99.90;;;;;;5014724;28;20048;-69
2022/12/14 05:37:49;;;;;;;14.10;5.75;;;-2.40;99.90;;;;;;5012595;28;20092;-69
2022/12/14 05:40:15;;;;;;;13.90;5.20;;;-2.50;99.90;;;;;;5011334;28;20038;-70
2022/12/14 05:42:41;;;;;;;12.45;5.45;;;-2.50;99.90;;;;;;5020947;28;20398;-67
2022/12/14 05:45:08;;;;;;;15.48;5.47;;;-2.50;99.90;;;;;;5017653;28;20109;-69
2022/12/14 05:47:34;;;;;;;14.77;5.82;;;-2.50;99.90;;;;;;5011904;28;20033;-70
2022/12/14 05:49:59;;;;;;;12.85;4.80;;;-2.50;99.90;;;;;;5016994;28;20092;-69
2022/12/14 05:52:25;;;;;;;15.45;5.68;;;-2.50;99.90;;;;;;5014132;28;20030;-70
2022/12/14 05:54:51;;;;;;;12.93;6.05;;;-2.50;99.90;;;;;;5017583;28;20482;-70
2022/12/14 05:57:17;;;;;;;13.45;5.70;;;-2.50;99.90;;;;;;5016239;28;20454;-70
2022/12/14 05:59:42;;;;;;;15.70;5.30;;;-2.50;99.90;;;;;;5018573;28;20025;-69
2022/12/14 06:02:08;;;;;;;16.80;6.47;;;-2.50;99.90;;;;;;5016379;28;20046;-69
2022/12/14 06:04:34;;;;;;;12.95;5.22;;;-2.50;99.90;;;;;;5017369;28;20047;-70
2022/12/14 06:06:59;;;;;;;16.75;5.07;;;-2.50;99.90;;;;;;5010196;28;20064;-70
2022/12/14 06:09:25;;;;;;;14.80;5.40;;;-2.60;99.90;;;;;;5009128;28;20049;-70
2022/12/14 06:11:51;;;;;;;16.00;7.22;;;-2.70;99.90;;;;;;5009679;28;20037;-70
2022/12/14 06:14:17;;;;;;;14.60;5.55;;;-2.70;99.90;;;;;;5006393;28;20365;-70
2022/12/14 06:16:44;;;;;;;16.52;5.85;;;-2.60;99.90;;;;;;5010344;28;20037;-68
2022/12/14 06:19:11;;;;;;;15.10;5.50;;;-2.60;99.90;;;;;;5006240;28;20037;-69
2022/12/14 06:21:39;;;;;;;15.05;5.65;;;-2.60;99.90;;;;;;5010778;28;20052;-70
2022/12/14 06:24:05;;;;;;;12.60;5.28;;;-2.70;99.90;;;;;;5001899;28;20037;-70
2022/12/14 06:26:32;;;;;;;11.63;4.38;;;-2.70;99.90;;;;;;5006535;28;20038;-70
2022/12/14 06:28:58;;;;;;;13.35;5.65;;;-2.70;99.90;;;;;;5013279;28;20498;-70
2022/12/14 06:31:27;;;;;;;12.70;5.65;;;-2.70;99.90;;;;;;5008017;28;20048;-70
2022/12/14 06:33:54;;;;;;;12.13;5.75;;;-2.70;99.90;;;;;;5016103;28;20037;-70
2022/12/14 06:36:23;;;;;;;13.07;5.30;;;-2.80;99.90;;;;;;5015869;28;20037;-70
2022/12/14 06:38:49;;;;;;;13.68;4.80;;;-2.80;99.90;;;;;;5014574;28;20232;-70
2022/12/14 06:41:15;;;;;;;12.63;4.93;;;-2.80;99.90;;;;;;5000035;28;20100;-70
2022/12/14 06:43:41;;;;;;;12.80;5.88;;;-2.90;99.90;;;;;;5010230;28;20101;-70
2022/12/14 06:46:08;;;;;;;15.10;5.40;;;-2.90;99.90;;;;;;4988101;28;20121;-70
2022/12/14 06:48:34;;;;;;;15.23;5.28;;;-2.80;99.90;;;;;;5008338;28;20030;-70
2022/12/14 06:51:01;;;;;;;10.23;4.20;;;-2.90;99.90;;;;;;5009932;28;20063;-71
2022/12/14 06:53:26;;;;;;;11.60;5.03;;;-2.90;99.90;;;;;;5006429;28;20037;-72
2022/12/14 06:55:52;;;;;;;11.50;4.60;;;-2.80;99.90;;;;;;5013383;28;20034;-70
2022/12/14 06:58:18;;;;;;;12.60;4.82;;;-2.80;99.90;;;;;;5008321;28;20041;-70
2022/12/14 07:00:43;;;;;;;9.75;3.80;;;-2.80;99.90;;;;;;5009039;28;20465;-67
2022/12/14 07:03:09;;;;;;;14.45;5.13;;;-2.90;99.90;;;;;;5010526;28;20053;-71
2022/12/14 07:05:35;;;;;;;11.95;4.50;;;-2.90;99.90;;;;;;5006503;28;20061;-70
2022/12/14 07:08:02;;;;;;;11.63;4.53;;;-2.80;99.90;;;;;;5004876;28;20038;-70
2022/12/14 07:10:27;;;;;;;13.13;5.10;;;-2.80;99.90;;;;;;5012109;28;20044;-70
2022/12/14 07:12:53;;;;;;;11.07;4.30;;;-2.80;99.90;;;;;;5016690;28;20037;-70
2022/12/14 07:15:19;;;;;;;14.68;4.88;;;-2.80;99.90;;;;;;5010023;28;20394;-70
2022/12/14 07:17:44;;;;;;;10.90;4.32;;;-2.80;99.90;;;;;;5007541;28;20026;-68
2022/12/14 07:20:10;;;;;;;9.65;4.15;;;-2.80;99.90;;;;;;5009279;28;20037;-68
2022/12/14 07:22:37;;;;;;;10.95;3.85;;;-2.80;99.90;;;;;;5004552;28;20038;-69
2022/12/14 07:25:03;;;;;;;10.60;4.00;;;-2.90;99.90;;;;;;5013059;28;20120;-70
2022/12/14 07:27:29;;;;;;;12.60;5.03;;;-2.80;99.90;;;;;;5009486;28;20026;-68
2022/12/14 07:29:55;;;;;;;10.90;4.47;;;-2.90;99.90;;;;;;5010965;28;20040;-70
2022/12/14 07:32:21;;;;;;;11.35;4.35;;;-2.90;99.90;;;;;;5006385;28;20034;-70
2022/12/14 07:34:47;;;;;;;12.40;4.30;;;-2.90;99.90;;;;;;5005204;28;20823;-70
2022/12/14 07:37:13;;;;;;;11.07;4.18;;;-2.90;99.90;;;;;;5006625;28;20085;-67
2022/12/14 07:39:39;;;;;;;9.05;3.92;;;-2.80;99.90;;;;;;5006652;28;20443;-69
2022/12/14 07:42:04;;;;;;;10.98;4.25;;;-2.80;99.90;;;;;;5005485;28;20069;-70
2022/12/14 07:44:30;;;;;;;13.85;4.30;;;-2.80;99.90;;;;;;5006186;28;20113;-67
2022/12/14 07:46:56;;;;;;;9.57;3.65;;;-2.80;99.90;;;;;;5006619;28;20513;-69
2022/12/14 07:49:21;;;;;;;10.27;3.80;;;-2.80;99.90;;;;;;5013448;28;20048;-70
2022/12/14 07:51:47;;;;;;;8.38;3.83;;;-2.80;99.90;;;;;;5011343;28;20049;-70
2022/12/14 07:54:13;;;;;;;13.45;4.40;;;-2.80;99.90;;;;;;5005378;28;20042;-67
2022/12/14 07:56:41;;;;;;;14.15;4.47;;;-2.80;99.90;;;;;;5009460;28;20065;-71
2022/12/14 07:59:15;;;;;;;11.93;4.82;;;-2.80;99.90;;;;;;5005476;28;20040;-73
2022/12/14 08:01:42;;;;;;;14.45;5.10;;;-2.80;99.90;;;;;;5009821;28;20052;-72
2022/12/14 08:04:11;;;;;;;15.18;3.97;;;-2.80;99.90;;;;;;5003824;28;20030;-71
2022/12/14 08:06:38;;;;;;;11.40;4.18;;;-2.80;99.90;;;;;;5004914;28;20038;-71
2022/12/14 08:09:05;;;;;;;10.77;4.07;;;-2.80;99.90;;;;;;5003333;28;20070;-71
2022/12/14 08:11:32;;;;;;;9.07;3.97;;;-2.80;99.90;;;;;;5009641;28;20030;-70
2022/12/14 08:14:04;;;;;;;8.77;3.78;;;-2.80;99.90;;;;;;5005133;28;20172;-69
2022/12/14 08:16:30;;;;;;;10.90;4.13;;;-2.90;99.90;;;;;;5006205;28;20037;-70
2022/12/14 08:18:57;;;;;;;15.55;4.82;;;-2.90;99.90;;;;;;5005846;28;20034;-69
2022/12/14 08:21:23;;;;;;;18.42;5.97;;;-2.90;99.90;;;;;;5007144;28;20473;-68
2022/12/14 08:23:50;;;;;;;13.30;4.45;;;-2.90;99.90;;;;;;5007292;28;20038;-70
2022/12/14 08:26:16;;;;;;;13.15;4.65;;;-2.90;99.90;;;;;;5001446;28;20042;-69
2022/12/14 08:28:42;;;;;;;11.90;3.58;;;-3.00;99.90;;;;;;5005730;28;20763;-70
2022/12/14 08:31:11;;;;;;;14.00;4.50;;;-3.00;99.90;;;;;;5004574;28;20116;-70
2022/12/14 08:33:38;;;;;;;11.13;3.85;;;-3.00;99.90;;;;;;4989470;28;20173;-70
2022/12/14 08:36:26;;;;;;;12.98;4.45;;;-3.00;99.90;;;;;;5007519;28;20120;-69
2022/12/14 08:38:57;;;;;;;10.43;4.43;;;-3.00;99.90;;;;;;5011719;28;20052;-70
2022/12/14 08:41:24;;;;;;;13.20;4.60;;;-3.00;99.90;;;;;;5015975;28;20430;-71
2022/12/14 08:43:51;;;;;;;15.60;4.65;;;-3.00;99.90;;;;;;5021757;28;20037;-70
2022/12/14 08:46:17;;;;;;;16.20;5.55;;;-3.00;99.90;;;;;;5022873;28;20056;-69
2022/12/14 08:48:43;;;;;;;15.23;4.80;;;-3.00;99.90;;;;;;5025817;28;20521;-69
2022/12/14 08:51:09;;;;;;;15.93;5.50;;;-2.90;99.90;;;;;;5019667;28;20062;-70
2022/12/14 08:53:36;;;;;;;15.20;6.60;;;-2.90;99.90;;;;;;5020683;28;20117;-70
2022/12/14 08:56:11;;;;;;;13.43;4.90;;;-2.90;99.90;;;;;;5020815;28;20053;-69
2022/12/14 08:58:38;;;;;;;17.92;5.80;;;-2.90;99.90;;;;;;5015694;28;20038;-70
2022/12/14 09:01:04;;;;;;;13.48;5.25;;;-2.90;99.90;;;;;;5018785;28;20037;-70
2022/12/14 09:03:30;;;;;;;15.40;5.53;;;-2.80;99.90;;;;;;5018435;28;20120;-70
2022/12/14 09:06:00;;;;;;;15.68;5.32;;;-2.70;99.90;;;;;;5020830;28;20091;-70
2022/12/14 09:08:25;;;;;;;13.07;6.05;;;-2.50;99.90;;;;;;5017408;28;20030;-70
2022/12/14 09:10:51;;;;;;;16.23;5.60;;;-2.50;99.90;;;;;;5013604;28;20376;-70
2022/12/14 09:13:17;;;;;;;14.40;6.15;;;-2.40;99.90;;;;;;5017499;28;20029;-68
2022/12/14 09:15:43;;;;;;;12.55;4.70;;;-2.30;99.90;;;;;;5010928;28;20042;-71
2022/12/14 09:18:09;;;;;;;14.55;5.63;;;-2.20;99.90;;;;;;4992925;28;20486;-70
2022/12/14 09:20:35;;;;;;;15.32;5.78;;;-2.10;99.90;;;;;;5007891;28;20038;-70
2022/12/14 09:23:01;;;;;;;15.90;5.72;;;-2.10;99.90;;;;;;5006970;28;20053;-69
2022/12/14 09:25:27;;;;;;;15.55;5.97;;;-2.00;99.90;;;;;;5010258;28;20105;-71
2022/12/14 09:27:52;;;;;;;10.10;4.80;;;-1.90;99.90;;;;;;5012847;28;20038;-70
2022/12/14 09:30:19;;;;;;;9.43;3.53;;;-1.90;99.90;;;;;;5010041;28;20047;-70
2022/12/14 09:32:46;;;;;;;16.80;5.68;;;-1.80;99.90;;;;;;5006400;28;20619;-68
2022/12/14 09:35:11;;;;;;;16.23;6.43;;;-1.70;99.90;;;;;;5005886;28;20038;-71
2022/12/14 09:37:37;;;;;;;16.67;4.70;;;-1.70;99.90;;;;;;5007729;28;20049;-70
2022/12/14 09:40:04;;;;;;;13.45;4.90;;;-1.70;99.90;;;;;;5009601;28;20133;-70
2022/12/14 09:42:51;;;;;;;12.93;5.80;;;-1.60;99.90;;;;;;5005327;28;20046;-71
2022/12/14 09:45:32;;;;;;;17.58;5.90;;;-1.50;99.90;;;;;;5007864;28;20038;-69
2022/12/14 09:48:23;;;;;;;17.30;6.05;;;-1.50;99.90;;;;;;5008880;28;20041;-70
2022/12/14 09:50:51;;;;;;;12.10;4.82;;;-1.40;99.90;;;;;;5008624;28;20095;-71
2022/12/14 09:53:18;;;;;;;16.15;4.75;;;-1.40;99.90;;;;;;5006355;28;20026;-70
2022/12/14 09:55:50;;;;;;;12.85;5.57;;;-1.30;99.90;;;;;;5008288;28;20053;-71
2022/12/14 09:58:25;;;;;;;10.60;5.10;;;-1.30;99.90;;;;;;5006909;28;20114;-70
2022/12/14 10:01:17;;;;;;;14.93;5.82;;;-1.20;99.90;;;;;;4988175;28;20034;-70
2022/12/14 10:04:07;;;;;;;13.13;5.72;;;-1.10;99.90;;;;;;5006482;28;20042;-70
2022/12/14 10:06:36;;;;;;;18.63;5.10;;;-1.10;99.90;;;;;;5005153;28;20037;-67
2022/12/14 10:09:25;;;;;;;14.23;5.40;;;-1.10;99.90;;;;;;5008975;28;20065;-69
2022/12/14 10:12:06;;;;;;;14.98;5.43;;;-1.00;99.90;;;;;;5005181;28;20034;-70
2022/12/14 10:15:00;;;;;;;14.43;5.78;;;-1.00;99.90;;;;;;5007374;28;20041;-71
2022/12/14 10:17:58;;;;;;;17.08;5.82;;;-0.90;99.90;;;;;;5002034;28;20030;-70
2022/12/14 10:20:48;;;;;;;12.13;5.07;;;-0.90;99.90;;;;;;4991327;28;20141;-70
2022/12/14 10:23:19;;;;;;;14.93;5.60;;;-0.80;99.90;;;;;;5012345;28;20544;-71
2022/12/14 10:25:47;;;;;;;12.90;5.25;;;-0.80;99.90;;;;;;5006166;28;20030;-71
2022/12/14 10:28:20;;;;;;;14.80;5.72;;;-0.70;99.90;;;;;;5006786;28;20113;-71
2022/12/14 10:30:47;;;;;;;14.05;6.32;;;-0.70;99.90;;;;;;5009878;28;20030;-70
2022/12/14 10:33:22;;;;;;;21.00;6.25;;;-0.60;99.90;;;;;;5006844;28;20076;-71
2022/12/14 10:35:47;;;;;;;12.20;4.80;;;-0.60;99.90;;;;;;5005702;28;20092;-67
2022/12/14 10:38:48;;;;;;;14.68;5.90;;;-0.60;99.90;;;;;;5006793;28;20050;-70
2022/12/14 10:41:35;;;;;;;15.55;5.03;;;-0.60;99.90;;;;;;5003485;28;20727;-71
2022/12/14 10:44:01;;;;;;;13.25;5.60;;;-0.50;99.90;;;;;;5003781;28;20046;-71
2022/12/14 10:46:49;;;;;;;17.58;6.75;;;-0.50;99.90;;;;;;5007281;28;20057;-71
2022/12/14 10:49:43;;;;;;;13.40;5.15;;;-0.50;99.90;;;;;;5007198;28;20049;-70
2022/12/14 10:52:17;;;;;;;13.35;5.35;;;-0.50;99.90;;;;;;5009871;28;20036;-70
2022/12/14 10:54:48;;;;;;;12.73;5.40;;;-0.50;99.90;;;;;;5007991;28;20061;-71
2022/12/14 10:57:25;;;;;;;10.43;4.80;;;-0.50;99.90;;;;;;5009027;28;20107;-70
2022/12/14 10:59:51;;;;;;;11.05;5.40;;;-0.50;99.90;;;;;;5005888;28;20038;-70
2022/12/14 11:02:20;;;;;;;14.63;4.95;;;-0.50;99.90;;;;;;5006933;28;20045;-69
2022/12/14 11:04:54;;;;;;;15.05;5.20;;;-0.40;99.90;;;;;;5010563;28;20030;-71
2022/12/14 11:07:35;;;;;;;11.48;3.88;;;-0.40;99.90;;;;;;5006187;28;20038;-70
2022/12/14 11:10:17;;;;;;;15.63;5.95;;;-0.30;99.90;;;;;;5006495;28;20479;-71
2022/12/14 11:13:12;;;;;;;12.18;4.75;;;-0.30;99.90;;;;;;5023017;28;20087;-71
2022/12/14 11:15:37;;;;;;;11.45;4.85;;;-0.30;99.90;;;;;;5007223;28;20037;-71
2022/12/14 11:18:25;;;;;;;14.63;5.95;;;-0.30;99.90;;;;;;5007357;28;20034;-71
2022/12/14 11:20:56;;;;;;;13.40;5.57;;;-0.20;99.90;;;;;;5013506;28;20044;-70
2022/12/14 11:23:29;;;;;;;12.00;4.72;;;-0.20;99.90;;;;;;5006179;28;20504;-71
2022/12/14 11:25:58;;;;;;;12.75;4.82;;;-0.20;99.90;;;;;;5008011;28;20109;-70
2022/12/14 11:28:44;;;;;;;9.55;4.40;;;-0.10;99.90;;;;;;5006725;28;20029;-70
2022/12/14 11:31:30;;;;;;;20.33;6.00;;;-0.10;99.90;;;;;;5011404;28;20550;-70
2022/12/14 11:33:57;;;;;;;12.95;5.45;;;-0.10;99.90;;;;;;5004361;28;20549;-71
2022/12/14 11:36:26;;;;;;;12.52;4.75;;;0.00;99.90;;;;;;5005823;28;20041;-70
2022/12/14 11:39:06;;;;;;;13.27;5.22;;;0.00;99.90;;;;;;5005516;28;20029;-70
2022/12/14 11:41:37;;;;;;;18.35;6.38;;;0.00;99.90;;;;;;5005657;28;20510;-71
2022/12/14 11:44:15;;;;;;;20.00;5.50;;;0.10;99.90;;;;;;5005590;28;20095;-69
2022/12/14 11:46:40;;;;;;;13.93;4.47;;;0.10;99.90;;;;;;5009288;28;20045;-71
2022/12/14 11:49:37;;;;;;;14.73;3.95;;;0.10;99.90;;;;;;5010755;28;20698;-71
2022/12/14 11:52:17;;;;;;;11.80;4.82;;;0.10;99.90;;;;;;4999040;28;20224;-68
2022/12/14 11:55:03;;;;;;;12.13;5.05;;;0.10;99.90;;;;;;5000964;28;20065;-70
2022/12/14 11:57:49;;;;;;;9.82;4.00;;;0.10;99.90;;;;;;5009591;28;20127;-70
2022/12/14 12:00:24;;;;;;;7.43;3.55;;;0.10;99.90;;;;;;5007143;28;20133;-71
2022/12/14 12:03:06;;;;;;;9.02;3.75;;;0.20;99.90;;;;;;5006895;28;20116;-70
2022/12/14 12:05:37;;;;;;;11.23;3.97;;;0.20;99.90;;;;;;5005784;28;20526;-72
2022/12/14 12:08:06;;;;;;;11.07;4.57;;;0.20;99.90;;;;;;5002449;28;20033;-72
2022/12/14 12:10:44;;;;;;;13.95;4.78;;;0.30;99.90;;;;;;5003152;28;20034;-71
2022/12/14 12:13:26;;;;;;;9.73;4.97;;;0.30;99.90;;;;;;5002520;28;20033;-69
2022/12/14 12:15:55;;;;;;;13.02;4.78;;;0.20;99.90;;;;;;5002606;28;20129;-69
2022/12/14 12:18:50;;;;;;;12.80;5.53;;;0.20;99.90;;;;;;5010939;28;20050;-70
2022/12/14 12:21:21;;;;;;;9.18;3.92;;;0.20;99.90;;;;;;4977562;28;20103;-71
2022/12/14 12:24:10;;;;;;;13.23;5.25;;;0.20;99.90;;;;;;5006939;28;20041;-70
2022/12/14 12:26:38;;;;;;;11.45;4.45;;;0.20;99.90;;;;;;5010475;28;20052;-71
2022/12/14 12:29:33;;;;;;;13.25;4.25;;;0.20;99.90;;;;;;5005400;28;20036;-69
2022/12/14 12:32:18;;;;;;;7.22;3.15;;;0.20;99.90;;;;;;5005123;28;20568;-70
2022/12/14 12:34:54;;;;;;;10.07;3.65;;;0.20;99.90;;;;;;4989235;28;20037;-71
2022/12/14 12:37:39;;;;;;;7.82;3.53;;;0.20;99.90;;;;;;5008214;28;20061;-68
2022/12/14 12:40:36;;;;;;;11.45;4.55;;;0.30;99.90;;;;;;5007438;28;20041;-71
2022/12/14 12:43:22;;;;;;;8.73;3.35;;;0.30;99.90;;;;;;5007770;28;20037;-71
2022/12/14 12:45:58;;;;;;;9.13;3.90;;;0.30;99.90;;;;;;5006571;28;20065;-71
2022/12/14 12:48:37;;;;;;;5.72;2.55;;;0.20;99.90;;;;;;5013290;28;20042;-71
2022/12/14 12:51:17;;;;;;;9.23;3.75;;;0.20;99.90;;;;;;5005119;28;20510;-71
2022/12/14 12:53:57;;;;;;;6.80;3.40;;;0.20;99.90;;;;;;5006119;28;20518;-70
2022/12/14 12:56:40;;;;;;;8.88;3.85;;;0.20;99.90;;;;;;5008274;28;20418;-70
2022/12/14 12:59:10;;;;;;;10.73;2.88;;;0.20;99.90;;;;;;5006604;28;20045;-71
2022/12/14 13:01:43;;;;;;;8.73;3.38;;;0.20;99.90;;;;;;5010110;28;20044;-71
2022/12/14 13:04:19;;;;;;;7.85;3.45;;;0.20;99.90;;;;;;5009940;28;20045;-71
2022/12/14 13:06:53;;;;;;;7.88;3.15;;;0.30;99.90;;;;;;5008533;28;20593;-72
2022/12/14 13:09:41;;;;;;;10.23;3.92;;;0.30;99.90;;;;;;5007990;28;20033;-70
2022/12/14 13:12:16;;;;;;;7.75;3.53;;;0.30;99.90;;;;;;5011957;28;20076;-71
2022/12/14 13:14:45;;;;;;;7.03;2.92;;;0.30;99.90;;;;;;5005724;28;20117;-71
2022/12/14 13:17:31;;;;;;;8.65;3.50;;;0.30;99.90;;;;;;5007920;28;20034;-71
2022/12/14 13:19:59;;;;;;;8.05;3.08;;;0.30;99.90;;;;;;5009928;28;20147;-71
2022/12/14 13:22:28;;;;;;;9.48;3.15;;;0.30;99.90;;;;;;5012042;28;20781;-71